SHT21B EGJB-EGLL
Flight info
| Callsign | SHT21B |
|---|---|
| Flight time | 0h 33m |
| Altitude | 19000 |
| Route | DCT ORIST L982 ROXOG ROXOG1H |
| Aircraft | A319/M-SDE3FGIJ1KRWXY/LB1 |
Departure
| Time | 2026-04-25 14:44 |
|---|---|
| Airport | Guernsey Airport (EGJB) |
Arrival
| Time | 2026-04-25 15:18 |
|---|---|
| Airport | London Heathrow Airport (EGLL) |
| Time | Latitude | Longitude | Altitude | Speed | Heading |
|---|---|---|---|---|---|
| 2026-04-25 14:05 | 49.43252 | -2.59685 | 299 ft | 0 kts | 177° |
| 2026-04-25 14:33 | 49.43257 | -2.59686 | 336 ft | 3 kts | 177° |
| 2026-04-25 14:33 | 49.43284 | -2.59687 | 318 ft | 4 kts | 177° |
| 2026-04-25 14:33 | 49.43311 | -2.59689 | 326 ft | 4 kts | 177° |
| 2026-04-25 14:33 | 49.43337 | -2.59689 | 326 ft | 4 kts | 193° |
| 2026-04-25 14:34 | 49.43358 | -2.59672 | 322 ft | 4 kts | 246° |
| 2026-04-25 14:34 | 49.43361 | -2.59655 | 324 ft | 0 kts | 268° |
| 2026-04-25 14:37 | 49.43361 | -2.59657 | 322 ft | 2 kts | 268° |
| 2026-04-25 14:37 | 49.43355 | -2.59732 | 326 ft | 11 kts | 257° |
| 2026-04-25 14:38 | 49.43344 | -2.59882 | 324 ft | 13 kts | 267° |
| 2026-04-25 14:38 | 49.43342 | -2.59973 | 322 ft | 13 kts | 268° |
| 2026-04-25 14:38 | 49.43337 | -2.60149 | 320 ft | 19 kts | 267° |
| 2026-04-25 14:38 | 49.43330 | -2.60377 | 317 ft | 20 kts | 268° |
| 2026-04-25 14:39 | 49.43329 | -2.60619 | 313 ft | 19 kts | 277° |
| 2026-04-25 14:39 | 49.43344 | -2.60755 | 312 ft | 21 kts | 280° |
| 2026-04-25 14:39 | 49.43365 | -2.60982 | 311 ft | 18 kts | 267° |
| 2026-04-25 14:39 | 49.43360 | -2.61170 | 306 ft | 11 kts | 268° |
| 2026-04-25 14:40 | 49.43360 | -2.61220 | 305 ft | 0 kts | 274° |
| 2026-04-25 14:41 | 49.43366 | -2.61262 | 305 ft | 9 kts | 294° |
| 2026-04-25 14:42 | 49.43421 | -2.61349 | 304 ft | 14 kts | 326° |
| 2026-04-25 14:42 | 49.43465 | -2.61305 | 305 ft | 14 kts | 77° |
| 2026-04-25 14:42 | 49.43468 | -2.61250 | 306 ft | 0 kts | 88° |
| 2026-04-25 14:43 | 49.43469 | -2.61213 | 309 ft | 24 kts | 88° |
| 2026-04-25 14:43 | 49.43491 | -2.60437 | 315 ft | 119 kts | 88° |
| 2026-04-25 14:44 | 49.43529 | -2.58912 | 746 ft | 149 kts | 87° |
| 2026-04-25 14:44 | 49.43564 | -2.57287 | 1551 ft | 156 kts | 88° |
| 2026-04-25 14:44 | 49.43610 | -2.55543 | 2096 ft | 171 kts | 88° |
| 2026-04-25 14:44 | 49.43667 | -2.53608 | 2468 ft | 193 kts | 87° |
| 2026-04-25 14:45 | 49.43749 | -2.51419 | 2878 ft | 215 kts | 82° |
| 2026-04-25 14:45 | 49.44410 | -2.49357 | 3582 ft | 223 kts | 43° |
| 2026-04-25 14:45 | 49.45781 | -2.48278 | 4147 ft | 224 kts | 9° |
| 2026-04-25 14:45 | 49.47302 | -2.47792 | 5119 ft | 224 kts | 11° |
| 2026-04-25 14:46 | 49.48843 | -2.47222 | 5860 ft | 237 kts | 12° |
| 2026-04-25 14:46 | 49.50524 | -2.46572 | 6346 ft | 261 kts | 12° |
| 2026-04-25 14:46 | 49.52336 | -2.45863 | 7072 ft | 273 kts | 13° |
| 2026-04-25 14:46 | 49.54193 | -2.45140 | 7949 ft | 278 kts | 13° |
| 2026-04-25 14:47 | 49.56087 | -2.44402 | 8860 ft | 283 kts | 13° |
| 2026-04-25 14:47 | 49.57384 | -2.43901 | 9472 ft | 286 kts | 13° |
| 2026-04-25 14:47 | 49.59962 | -2.42914 | 10615 ft | 291 kts | 13° |
| 2026-04-25 14:47 | 49.61943 | -2.42158 | 11419 ft | 295 kts | 12° |
| 2026-04-25 14:48 | 49.63951 | -2.41390 | 12220 ft | 299 kts | 13° |
| 2026-04-25 14:48 | 49.65986 | -2.40610 | 13023 ft | 303 kts | 12° |
| 2026-04-25 14:48 | 49.68045 | -2.39789 | 13808 ft | 308 kts | 16° |
| 2026-04-25 14:48 | 49.70009 | -2.38395 | 14511 ft | 314 kts | 31° |
| 2026-04-25 14:49 | 49.71770 | -2.36234 | 14793 ft | 337 kts | 45° |
| 2026-04-25 14:49 | 49.73351 | -2.33404 | 14955 ft | 358 kts | 49° |
| 2026-04-25 14:49 | 49.74981 | -2.30420 | 15419 ft | 367 kts | 49° |
| 2026-04-25 14:49 | 49.76637 | -2.27388 | 16014 ft | 371 kts | 48° |
| 2026-04-25 14:50 | 49.78316 | -2.24326 | 16665 ft | 374 kts | 48° |
| 2026-04-25 14:50 | 49.80007 | -2.21243 | 17320 ft | 377 kts | 48° |
| 2026-04-25 14:50 | 49.81709 | -2.18137 | 17961 ft | 380 kts | 48° |
| 2026-04-25 14:50 | 49.83430 | -2.14992 | 18573 ft | 384 kts | 48° |
| 2026-04-25 14:51 | 49.85164 | -2.11821 | 19019 ft | 388 kts | 48° |
| 2026-04-25 14:51 | 49.86909 | -2.08635 | 19162 ft | 388 kts | 48° |
| 2026-04-25 14:51 | 49.88667 | -2.05425 | 19198 ft | 391 kts | 48° |
| 2026-04-25 14:51 | 49.90429 | -2.02194 | 19200 ft | 392 kts | 48° |
| 2026-04-25 14:52 | 49.92185 | -1.98960 | 19199 ft | 392 kts | 48° |
| 2026-04-25 14:52 | 49.93935 | -1.95720 | 19201 ft | 392 kts | 48° |
| 2026-04-25 14:52 | 49.95688 | -1.92474 | 19210 ft | 392 kts | 48° |
| 2026-04-25 14:52 | 49.96849 | -1.90326 | 19205 ft | 392 kts | 48° |
| 2026-04-25 14:53 | 49.99275 | -1.86092 | 19205 ft | 391 kts | 41° |
| 2026-04-25 14:53 | 50.01410 | -1.83504 | 19204 ft | 389 kts | 30° |
| 2026-04-25 14:53 | 50.03778 | -1.81505 | 19207 ft | 387 kts | 24° |
| 2026-04-25 14:53 | 50.06187 | -1.79616 | 19208 ft | 388 kts | 25° |
| 2026-04-25 14:54 | 50.08562 | -1.77736 | 19207 ft | 388 kts | 25° |
| 2026-04-25 14:54 | 50.10966 | -1.75826 | 19208 ft | 388 kts | 25° |
| 2026-04-25 14:54 | 50.13253 | -1.73569 | 19208 ft | 391 kts | 36° |
| 2026-04-25 14:54 | 50.15354 | -1.70876 | 19212 ft | 391 kts | 38° |
| 2026-04-25 14:55 | 50.17476 | -1.68121 | 19210 ft | 391 kts | 38° |
| 2026-04-25 14:55 | 50.19538 | -1.65439 | 19217 ft | 391 kts | 38° |
| 2026-04-25 14:55 | 50.21628 | -1.62720 | 19215 ft | 391 kts | 38° |
| 2026-04-25 14:55 | 50.23750 | -1.59963 | 19217 ft | 392 kts | 38° |
| 2026-04-25 14:56 | 50.25921 | -1.57400 | 19216 ft | 390 kts | 30° |
| 2026-04-25 14:56 | 50.28283 | -1.55494 | 19217 ft | 387 kts | 20° |
| 2026-04-25 14:56 | 50.30869 | -1.54148 | 19218 ft | 386 kts | 15° |
| 2026-04-25 14:56 | 50.33402 | -1.52920 | 19218 ft | 386 kts | 15° |
| 2026-04-25 14:57 | 50.35964 | -1.51666 | 19218 ft | 386 kts | 15° |
| 2026-04-25 14:57 | 50.38527 | -1.50411 | 19218 ft | 386 kts | 15° |
| 2026-04-25 14:57 | 50.41093 | -1.49154 | 19218 ft | 386 kts | 15° |
| 2026-04-25 14:57 | 50.43650 | -1.47897 | 19223 ft | 386 kts | 15° |
| 2026-04-25 14:58 | 50.46216 | -1.46628 | 19222 ft | 386 kts | 15° |
| 2026-04-25 14:58 | 50.48774 | -1.45361 | 19222 ft | 386 kts | 15° |
| 2026-04-25 14:58 | 50.51337 | -1.44091 | 19222 ft | 386 kts | 15° |
| 2026-04-25 14:58 | 50.53874 | -1.42699 | 19221 ft | 388 kts | 21° |
| 2026-04-25 14:59 | 50.56278 | -1.40743 | 19222 ft | 389 kts | 27° |
| 2026-04-25 14:59 | 50.58648 | -1.38698 | 19224 ft | 389 kts | 26° |
| 2026-04-25 14:59 | 50.61025 | -1.36658 | 19223 ft | 389 kts | 26° |
| 2026-04-25 14:59 | 50.63404 | -1.34624 | 19221 ft | 389 kts | 26° |
| 2026-04-25 15:00 | 50.65778 | -1.32593 | 19223 ft | 389 kts | 26° |
| 2026-04-25 15:00 | 50.68147 | -1.30556 | 19157 ft | 385 kts | 26° |
| 2026-04-25 15:00 | 50.70478 | -1.28540 | 18924 ft | 378 kts | 26° |
| 2026-04-25 15:00 | 50.72762 | -1.26559 | 18683 ft | 371 kts | 26° |
| 2026-04-25 15:01 | 50.75016 | -1.24612 | 18450 ft | 368 kts | 26° |
| 2026-04-25 15:01 | 50.77247 | -1.22630 | 18180 ft | 367 kts | 28° |
| 2026-04-25 15:01 | 50.79416 | -1.20512 | 17911 ft | 366 kts | 30° |
| 2026-04-25 15:01 | 50.81542 | -1.18312 | 17638 ft | 364 kts | 31° |
| 2026-04-25 15:02 | 50.83634 | -1.16094 | 17199 ft | 362 kts | 32° |
| 2026-04-25 15:02 | 50.85720 | -1.13878 | 16710 ft | 361 kts | 32° |
| 2026-04-25 15:02 | 50.87817 | -1.11666 | 16225 ft | 361 kts | 31° |
| 2026-04-25 15:02 | 50.89911 | -1.09472 | 15722 ft | 361 kts | 31° |
| 2026-04-25 15:03 | 50.92008 | -1.07289 | 15230 ft | 361 kts | 31° |
| 2026-04-25 15:03 | 50.94104 | -1.05116 | 14736 ft | 360 kts | 31° |
| 2026-04-25 15:03 | 50.96201 | -1.02945 | 14241 ft | 360 kts | 31° |
| 2026-04-25 15:03 | 50.98297 | -1.00774 | 13717 ft | 359 kts | 31° |
| 2026-04-25 15:04 | 51.00338 | -0.98517 | 13210 ft | 358 kts | 38° |
| 2026-04-25 15:04 | 51.02080 | -0.95723 | 12784 ft | 355 kts | 47° |
| 2026-04-25 15:04 | 51.03714 | -0.92796 | 12379 ft | 351 kts | 47° |
| 2026-04-25 15:04 | 51.05329 | -0.89920 | 11966 ft | 347 kts | 47° |
| 2026-04-25 15:05 | 51.06928 | -0.87078 | 11559 ft | 344 kts | 47° |
| 2026-04-25 15:05 | 51.08517 | -0.84255 | 11155 ft | 341 kts | 47° |
| 2026-04-25 15:05 | 51.10091 | -0.81458 | 10754 ft | 338 kts | 47° |
| 2026-04-25 15:06 | 51.13119 | -0.76048 | 10410 ft | 319 kts | 47° |
| 2026-04-25 15:06 | 51.14587 | -0.73412 | 10288 ft | 310 kts | 47° |
| 2026-04-25 15:06 | 51.15977 | -0.70917 | 10177 ft | 301 kts | 47° |
| 2026-04-25 15:06 | 51.17353 | -0.68450 | 9977 ft | 295 kts | 47° |
| 2026-04-25 15:07 | 51.18713 | -0.66012 | 9574 ft | 293 kts | 47° |
| 2026-04-25 15:07 | 51.20064 | -0.63590 | 9162 ft | 292 kts | 47° |
| 2026-04-25 15:07 | 51.21404 | -0.61182 | 8817 ft | 289 kts | 47° |
| 2026-04-25 15:07 | 51.22729 | -0.58795 | 8484 ft | 285 kts | 47° |
| 2026-04-25 15:08 | 51.24036 | -0.56438 | 8173 ft | 283 kts | 47° |
| 2026-04-25 15:08 | 51.25337 | -0.54085 | 7866 ft | 283 kts | 47° |
| 2026-04-25 15:08 | 51.26705 | -0.51832 | 7614 ft | 280 kts | 36° |
| 2026-04-25 15:08 | 51.28453 | -0.50609 | 7420 ft | 275 kts | 8° |
| 2026-04-25 15:09 | 51.30329 | -0.50824 | 7188 ft | 272 kts | 341° |
| 2026-04-25 15:09 | 51.31906 | -0.52414 | 6948 ft | 271 kts | 313° |
| 2026-04-25 15:09 | 51.33567 | -0.57777 | 6326 ft | 270 kts | 291° |
| 2026-04-25 15:10 | 51.34009 | -0.59631 | 6123 ft | 268 kts | 291° |
| 2026-04-25 15:10 | 51.34882 | -0.63320 | 5659 ft | 265 kts | 291° |
| 2026-04-25 15:10 | 51.36178 | -0.68827 | 4977 ft | 263 kts | 291° |
| 2026-04-25 15:11 | 51.36821 | -0.71562 | 4640 ft | 261 kts | 291° |
| 2026-04-25 15:11 | 51.37459 | -0.74275 | 4278 ft | 261 kts | 291° |
| 2026-04-25 15:11 | 51.38134 | -0.76963 | 3926 ft | 259 kts | 298° |
| 2026-04-25 15:12 | 51.40948 | -0.79769 | 3603 ft | 239 kts | 356° |
| 2026-04-25 15:12 | 51.42579 | -0.79822 | 3476 ft | 229 kts | 0° |
| 2026-04-25 15:12 | 51.44137 | -0.79798 | 3351 ft | 219 kts | 1° |
| 2026-04-25 15:12 | 51.44630 | -0.79787 | 3310 ft | 215 kts | 1° |
| 2026-04-25 15:13 | 51.46835 | -0.78609 | 3090 ft | 195 kts | 45° |
| 2026-04-25 15:13 | 51.47605 | -0.74710 | 3015 ft | 189 kts | 90° |
| 2026-04-25 15:13 | 51.47620 | -0.72632 | 2955 ft | 189 kts | 89° |
| 2026-04-25 15:14 | 51.47636 | -0.70511 | 2757 ft | 185 kts | 89° |
| 2026-04-25 15:14 | 51.47649 | -0.68462 | 2526 ft | 182 kts | 89° |
| 2026-04-25 15:14 | 51.47661 | -0.66445 | 2286 ft | 179 kts | 89° |
| 2026-04-25 15:14 | 51.47672 | -0.64483 | 2055 ft | 177 kts | 89° |
| 2026-04-25 15:15 | 51.47682 | -0.62523 | 1813 ft | 175 kts | 89° |
| 2026-04-25 15:15 | 51.47692 | -0.60587 | 1580 ft | 171 kts | 89° |
| 2026-04-25 15:15 | 51.47702 | -0.58734 | 1366 ft | 158 kts | 89° |
| 2026-04-25 15:15 | 51.47710 | -0.57069 | 1153 ft | 141 kts | 89° |
| 2026-04-25 15:16 | 51.47717 | -0.55543 | 970 ft | 134 kts | 89° |
| 2026-04-25 15:16 | 51.47722 | -0.54062 | 786 ft | 132 kts | 90° |
| 2026-04-25 15:16 | 51.47725 | -0.51121 | 459 ft | 132 kts | 89° |
| 2026-04-25 15:17 | 51.47753 | -0.48189 | 119 ft | 131 kts | 88° |
| 2026-04-25 15:17 | 51.47756 | -0.46850 | 90 ft | 101 kts | 89° |
| 2026-04-25 15:17 | 51.47759 | -0.45996 | 85 ft | 53 kts | 89° |
| 2026-04-25 15:18 | 51.47753 | -0.45536 | 87 ft | 32 kts | 111° |
| 2026-04-25 15:18 | 51.47596 | -0.45696 | 86 ft | 22 kts | 270° |
| 2026-04-25 15:18 | 51.47595 | -0.45973 | 86 ft | 28 kts | 270° |
| 2026-04-25 15:19 | 51.47527 | -0.46108 | 88 ft | 17 kts | 226° |
| 2026-04-25 15:19 | 51.47516 | -0.46171 | 86 ft | 18 kts | 268° |
| 2026-04-25 15:19 | 51.47516 | -0.46608 | 86 ft | 28 kts | 269° |
| 2026-04-25 15:19 | 51.47499 | -0.46762 | 88 ft | 10 kts | 248° |
| 2026-04-25 15:20 | 51.47495 | -0.46823 | 89 ft | 3 kts | 269° |
| 2026-04-25 15:20 | 51.47496 | -0.46887 | 89 ft | 8 kts | 286° |
| 2026-04-25 15:20 | 51.47559 | -0.46946 | 87 ft | 13 kts | 327° |
| 2026-04-25 15:20 | 51.47583 | -0.47106 | 86 ft | 19 kts | 270° |
| 2026-04-25 15:21 | 51.47582 | -0.47350 | 86 ft | 25 kts | 270° |
| 2026-04-25 15:21 | 51.47581 | -0.47669 | 86 ft | 31 kts | 270° |
| 2026-04-25 15:21 | 51.47580 | -0.48020 | 86 ft | 26 kts | 270° |
| 2026-04-25 15:21 | 51.47579 | -0.48297 | 90 ft | 20 kts | 270° |
| 2026-04-25 15:22 | 51.47551 | -0.48473 | 87 ft | 17 kts | 205° |
| 2026-04-25 15:22 | 51.47465 | -0.48475 | 86 ft | 20 kts | 180° |
| 2026-04-25 15:22 | 51.47305 | -0.48474 | 86 ft | 25 kts | 179° |
| 2026-04-25 15:22 | 51.47147 | -0.48473 | 86 ft | 24 kts | 180° |
| 2026-04-25 15:23 | 51.46986 | -0.48472 | 89 ft | 19 kts | 180° |
| 2026-04-25 15:23 | 51.46887 | -0.48487 | 87 ft | 14 kts | 221° |
| 2026-04-25 15:23 | 51.46877 | -0.48651 | 89 ft | 11 kts | 269° |
| 2026-04-25 15:23 | 51.46877 | -0.48773 | 86 ft | 11 kts | 269° |
| 2026-04-25 15:24 | 51.46900 | -0.48857 | 88 ft | 9 kts | 336° |
| 2026-04-25 15:24 | 51.46920 | -0.48859 | 89 ft | 1 kts | 0° |
| 2026-04-25 15:24 | 51.46928 | -0.48859 | 88 ft | 0 kts | 360° |
| 2026-04-25 15:24 | 51.46931 | -0.48859 | 87 ft | 0 kts | 360° |